sensor_id;sensor_type;location;lat;lon;timestamp;temperature;humidity
22678;DHT22;26259;50.214;18.620;2022-12-16T00:00:16;-0.60;99.90
22678;DHT22;26259;50.214;18.620;2022-12-16T00:02:42;-0.60;99.90
22678;DHT22;26259;50.214;18.620;2022-12-16T00:05:08;-0.60;99.90
22678;DHT22;26259;50.214;18.620;2022-12-16T00:07:33;-0.60;99.90
22678;DHT22;26259;50.214;18.620;2022-12-16T00:09:59;-0.70;99.90
22678;DHT22;26259;50.214;18.620;2022-12-16T00:12:25;-0.70;99.90
22678;DHT22;26259;50.214;18.620;2022-12-16T00:14:51;-0.60;99.90
22678;DHT22;26259;50.214;18.620;2022-12-16T00:17:17;-0.70;99.90
22678;DHT22;26259;50.214;18.620;2022-12-16T00:19:42;-0.70;99.90
22678;DHT22;26259;50.214;18.620;2022-12-16T00:22:08;-0.70;99.90
22678;DHT22;26259;50.214;18.620;2022-12-16T00:24:34;-0.70;99.90
22678;DHT22;26259;50.214;18.620;2022-12-16T00:26:59;-0.70;99.90
22678;DHT22;26259;50.214;18.620;2022-12-16T00:29:25;-0.70;99.90
22678;DHT22;26259;50.214;18.620;2022-12-16T00:31:50;-0.70;99.90
22678;DHT22;26259;50.214;18.620;2022-12-16T00:34:16;-0.70;99.90
22678;DHT22;26259;50.214;18.620;2022-12-16T00:36:42;-0.70;99.90
22678;DHT22;26259;50.214;18.620;2022-12-16T00:39:08;-0.70;99.90
22678;DHT22;26259;50.214;18.620;2022-12-16T00:41:34;-0.80;99.90
22678;DHT22;26259;50.214;18.620;2022-12-16T00:44:01;-0.80;99.90
22678;DHT22;26259;50.214;18.620;2022-12-16T00:46:27;-0.80;99.90
22678;DHT22;26259;50.214;18.620;2022-12-16T00:48:52;-0.80;99.90
22678;DHT22;26259;50.214;18.620;2022-12-16T00:51:18;-0.80;99.90
22678;DHT22;26259;50.214;18.620;2022-12-16T00:53:44;-0.80;99.90
22678;DHT22;26259;50.214;18.620;2022-12-16T00:56:11;-0.90;99.90
22678;DHT22;26259;50.214;18.620;2022-12-16T00:58:39;-0.90;99.90
22678;DHT22;26259;50.214;18.620;2022-12-16T01:01:07;-0.90;99.90
22678;DHT22;26259;50.214;18.620;2022-12-16T01:03:34;-0.90;99.90
22678;DHT22;26259;50.214;18.620;2022-12-16T01:05:59;-0.90;99.90
22678;DHT22;26259;50.214;18.620;2022-12-16T01:08:25;-0.90;99.90
22678;DHT22;26259;50.214;18.620;2022-12-16T01:10:53;-0.90;99.90
22678;DHT22;26259;50.214;18.620;2022-12-16T01:13:19;-0.90;99.90
22678;DHT22;26259;50.214;18.620;2022-12-16T01:15:45;-0.90;99.90
22678;DHT22;26259;50.214;18.620;2022-12-16T01:18:11;-0.90;99.90
22678;DHT22;26259;50.214;18.620;2022-12-16T01:20:37;-1.00;99.90
22678;DHT22;26259;50.214;18.620;2022-12-16T01:23:03;-0.90;99.90
22678;DHT22;26259;50.214;18.620;2022-12-16T01:25:28;-1.00;99.90
22678;DHT22;26259;50.214;18.620;2022-12-16T01:27:54;-1.00;99.90
22678;DHT22;26259;50.214;18.620;2022-12-16T01:30:20;-1.00;99.90
22678;DHT22;26259;50.214;18.620;2022-12-16T01:32:45;-1.00;99.90
22678;DHT22;26259;50.214;18.620;2022-12-16T01:35:11;-1.00;99.90
22678;DHT22;26259;50.214;18.620;2022-12-16T01:37:37;-1.10;99.90
22678;DHT22;26259;50.214;18.620;2022-12-16T01:40:04;-1.10;99.90
22678;DHT22;26259;50.214;18.620;2022-12-16T01:42:30;-1.10;99.90
22678;DHT22;26259;50.214;18.620;2022-12-16T01:47:49;-1.10;99.90
22678;DHT22;26259;50.214;18.620;2022-12-16T01:50:16;-1.10;99.90
22678;DHT22;26259;50.214;18.620;2022-12-16T01:52:45;-1.10;99.90
22678;DHT22;26259;50.214;18.620;2022-12-16T01:55:17;-1.10;99.90
22678;DHT22;26259;50.214;18.620;2022-12-16T01:57:48;-1.10;99.90
22678;DHT22;26259;50.214;18.620;2022-12-16T02:00:16;-1.10;99.90
22678;DHT22;26259;50.214;18.620;2022-12-16T02:02:43;-1.10;99.90
22678;DHT22;26259;50.214;18.620;2022-12-16T02:05:10;-1.10;99.90
22678;DHT22;26259;50.214;18.620;2022-12-16T02:08:06;-1.10;99.90
22678;DHT22;26259;50.214;18.620;2022-12-16T02:11:00;-1.10;99.90
22678;DHT22;26259;50.214;18.620;2022-12-16T02:13:45;-1.10;99.90
22678;DHT22;26259;50.214;18.620;2022-12-16T02:21:46;-1.20;99.90
22678;DHT22;26259;50.214;18.620;2022-12-16T02:32:28;-1.20;99.90
22678;DHT22;26259;50.214;18.620;2022-12-16T02:43:16;-1.30;99.90
22678;DHT22;26259;50.214;18.620;2022-12-16T02:45:47;-1.30;99.90
22678;DHT22;26259;50.214;18.620;2022-12-16T02:48:13;-1.30;99.90
22678;DHT22;26259;50.214;18.620;2022-12-16T02:50:44;-1.30;99.90
22678;DHT22;26259;50.214;18.620;2022-12-16T02:53:11;-1.30;99.90
22678;DHT22;26259;50.214;18.620;2022-12-16T02:55:58;-1.30;99.90
22678;DHT22;26259;50.214;18.620;2022-12-16T03:01:08;-1.30;99.90
22678;DHT22;26259;50.214;18.620;2022-12-16T03:03:42;-1.30;99.90
22678;DHT22;26259;50.214;18.620;2022-12-16T03:06:11;-1.30;99.90
22678;DHT22;26259;50.214;18.620;2022-12-16T03:08:41;-1.30;99.90
22678;DHT22;26259;50.214;18.620;2022-12-16T03:11:09;-1.30;99.90
22678;DHT22;26259;50.214;18.620;2022-12-16T03:13:40;-1.30;99.90
22678;DHT22;26259;50.214;18.620;2022-12-16T03:16:08;-1.30;99.90
22678;DHT22;26259;50.214;18.620;2022-12-16T03:18:36;-1.30;99.90
22678;DHT22;26259;50.214;18.620;2022-12-16T03:21:05;-1.30;99.90
22678;DHT22;26259;50.214;18.620;2022-12-16T03:26:09;-1.20;99.90
22678;DHT22;26259;50.214;18.620;2022-12-16T03:28:47;-1.20;99.90
22678;DHT22;26259;50.214;18.620;2022-12-16T03:33:54;-1.30;99.90
22678;DHT22;26259;50.214;18.620;2022-12-16T03:36:21;-1.30;99.90
22678;DHT22;26259;50.214;18.620;2022-12-16T03:38:49;-1.30;99.90
22678;DHT22;26259;50.214;18.620;2022-12-16T03:41:16;-1.30;99.90
22678;DHT22;26259;50.214;18.620;2022-12-16T03:43:43;-1.30;99.90
22678;DHT22;26259;50.214;18.620;2022-12-16T03:46:10;-1.30;99.90
22678;DHT22;26259;50.214;18.620;2022-12-16T03:48:44;-1.30;99.90
22678;DHT22;26259;50.214;18.620;2022-12-16T03:51:10;-1.30;99.90
22678;DHT22;26259;50.214;18.620;2022-12-16T03:53:36;-1.30;99.90
22678;DHT22;26259;50.214;18.620;2022-12-16T03:56:01;-1.30;99.90
22678;DHT22;26259;50.214;18.620;2022-12-16T03:58:27;-1.30;99.90
22678;DHT22;26259;50.214;18.620;2022-12-16T04:00:53;-1.40;99.90
22678;DHT22;26259;50.214;18.620;2022-12-16T04:03:18;-1.40;99.90
22678;DHT22;26259;50.214;18.620;2022-12-16T04:05:47;-1.40;99.90
22678;DHT22;26259;50.214;18.620;2022-12-16T04:08:13;-1.40;99.90
22678;DHT22;26259;50.214;18.620;2022-12-16T04:10:38;-1.40;99.90
22678;DHT22;26259;50.214;18.620;2022-12-16T04:13:22;-1.40;99.90
22678;DHT22;26259;50.214;18.620;2022-12-16T04:16:15;-1.40;99.90
22678;DHT22;26259;50.214;18.620;2022-12-16T04:19:00;-1.50;99.90
22678;DHT22;26259;50.214;18.620;2022-12-16T04:21:44;-1.50;99.90
22678;DHT22;26259;50.214;18.620;2022-12-16T04:24:29;-1.50;99.90
22678;DHT22;26259;50.214;18.620;2022-12-16T04:26:55;-1.50;99.90
22678;DHT22;26259;50.214;18.620;2022-12-16T04:29:39;-1.40;99.90
22678;DHT22;26259;50.214;18.620;2022-12-16T04:32:24;-1.50;99.90
22678;DHT22;26259;50.214;18.620;2022-12-16T04:34:49;-1.50;99.90
22678;DHT22;26259;50.214;18.620;2022-12-16T04:37:16;-1.50;99.90
22678;DHT22;26259;50.214;18.620;2022-12-16T04:40:00;-1.50;99.90
22678;DHT22;26259;50.214;18.620;2022-12-16T04:42:44;-1.50;99.90
22678;DHT22;26259;50.214;18.620;2022-12-16T04:45:28;-1.50;99.90
22678;DHT22;26259;50.214;18.620;2022-12-16T04:48:12;-1.50;99.90
22678;DHT22;26259;50.214;18.620;2022-12-16T04:50:56;-1.50;99.90
22678;DHT22;26259;50.214;18.620;2022-12-16T04:53:40;-1.50;99.90
22678;DHT22;26259;50.214;18.620;2022-12-16T04:56:24;-1.50;99.90
22678;DHT22;26259;50.214;18.620;2022-12-16T04:59:08;-1.50;99.90
22678;DHT22;26259;50.214;18.620;2022-12-16T05:01:52;-1.50;99.90
22678;DHT22;26259;50.214;18.620;2022-12-16T05:04:36;-1.60;99.90
22678;DHT22;26259;50.214;18.620;2022-12-16T05:07:20;-1.50;99.90
22678;DHT22;26259;50.214;18.620;2022-12-16T05:10:06;-1.60;99.90
22678;DHT22;26259;50.214;18.620;2022-12-16T05:12:52;-1.50;99.90
22678;DHT22;26259;50.214;18.620;2022-12-16T05:15:36;-1.60;99.90
22678;DHT22;26259;50.214;18.620;2022-12-16T05:18:20;-1.50;99.90
22678;DHT22;26259;50.214;18.620;2022-12-16T05:21:04;-1.60;99.90
22678;DHT22;26259;50.214;18.620;2022-12-16T05:23:48;-1.60;99.90
22678;DHT22;26259;50.214;18.620;2022-12-16T05:26:33;-1.50;99.90
22678;DHT22;26259;50.214;18.620;2022-12-16T05:29:16;-1.50;99.90
22678;DHT22;26259;50.214;18.620;2022-12-16T05:32:00;-1.50;99.90
22678;DHT22;26259;50.214;18.620;2022-12-16T05:34:44;-1.60;99.90
22678;DHT22;26259;50.214;18.620;2022-12-16T05:37:28;-1.50;99.90
22678;DHT22;26259;50.214;18.620;2022-12-16T05:40:13;-1.50;99.90
22678;DHT22;26259;50.214;18.620;2022-12-16T05:42:57;-1.50;99.90
22678;DHT22;26259;50.214;18.620;2022-12-16T05:45:41;-1.60;99.90
22678;DHT22;26259;50.214;18.620;2022-12-16T05:48:25;-1.60;99.90
22678;DHT22;26259;50.214;18.620;2022-12-16T05:51:09;-1.60;99.90
22678;DHT22;26259;50.214;18.620;2022-12-16T05:53:53;-1.60;99.90
22678;DHT22;26259;50.214;18.620;2022-12-16T05:56:37;-1.60;99.90
22678;DHT22;26259;50.214;18.620;2022-12-16T05:59:20;-1.70;99.90
22678;DHT22;26259;50.214;18.620;2022-12-16T06:02:04;-1.70;99.90
22678;DHT22;26259;50.214;18.620;2022-12-16T06:05:08;-1.70;99.90
22678;DHT22;26259;50.214;18.620;2022-12-16T06:07:53;-1.70;99.90
22678;DHT22;26259;50.214;18.620;2022-12-16T06:10:37;-1.70;99.90
22678;DHT22;26259;50.214;18.620;2022-12-16T06:13:21;-1.70;99.90
22678;DHT22;26259;50.214;18.620;2022-12-16T06:16:06;-1.70;99.90
22678;DHT22;26259;50.214;18.620;2022-12-16T06:18:50;-1.80;99.90
22678;DHT22;26259;50.214;18.620;2022-12-16T06:21:34;-1.80;99.90
22678;DHT22;26259;50.214;18.620;2022-12-16T06:24:18;-1.80;99.90
22678;DHT22;26259;50.214;18.620;2022-12-16T06:27:02;-1.80;99.90
22678;DHT22;26259;50.214;18.620;2022-12-16T06:29:46;-1.80;99.90
22678;DHT22;26259;50.214;18.620;2022-12-16T06:32:30;-1.80;99.90
22678;DHT22;26259;50.214;18.620;2022-12-16T06:35:14;-1.90;99.90
22678;DHT22;26259;50.214;18.620;2022-12-16T06:37:58;-1.90;99.90
22678;DHT22;26259;50.214;18.620;2022-12-16T06:40:42;-1.90;99.90
22678;DHT22;26259;50.214;18.620;2022-12-16T06:43:26;-1.90;99.90
22678;DHT22;26259;50.214;18.620;2022-12-16T06:46:10;-1.90;99.90
22678;DHT22;26259;50.214;18.620;2022-12-16T06:48:54;-1.90;99.90
22678;DHT22;26259;50.214;18.620;2022-12-16T06:51:39;-1.90;99.90
22678;DHT22;26259;50.214;18.620;2022-12-16T06:54:23;-1.90;99.90
22678;DHT22;26259;50.214;18.620;2022-12-16T06:57:06;-1.80;99.90
22678;DHT22;26259;50.214;18.620;2022-12-16T06:59:51;-1.80;99.90
22678;DHT22;26259;50.214;18.620;2022-12-16T07:02:34;-1.80;99.90
22678;DHT22;26259;50.214;18.620;2022-12-16T07:05:18;-1.90;99.90
22678;DHT22;26259;50.214;18.620;2022-12-16T07:08:03;-1.90;99.90
22678;DHT22;26259;50.214;18.620;2022-12-16T07:10:47;-1.90;99.90
22678;DHT22;26259;50.214;18.620;2022-12-16T07:13:31;-1.90;99.90
22678;DHT22;26259;50.214;18.620;2022-12-16T07:16:15;-1.80;99.90
22678;DHT22;26259;50.214;18.620;2022-12-16T07:18:59;-1.80;99.90
22678;DHT22;26259;50.214;18.620;2022-12-16T07:21:43;-1.80;99.90
22678;DHT22;26259;50.214;18.620;2022-12-16T07:24:27;-1.80;99.90
22678;DHT22;26259;50.214;18.620;2022-12-16T07:27:11;-1.80;99.90
22678;DHT22;26259;50.214;18.620;2022-12-16T07:29:55;-1.80;99.90
22678;DHT22;26259;50.214;18.620;2022-12-16T07:32:39;-1.80;99.90
22678;DHT22;26259;50.214;18.620;2022-12-16T07:35:23;-1.80;99.90
22678;DHT22;26259;50.214;18.620;2022-12-16T07:38:07;-1.80;99.90
22678;DHT22;26259;50.214;18.620;2022-12-16T07:40:51;-1.80;99.90
22678;DHT22;26259;50.214;18.620;2022-12-16T07:43:35;-1.70;99.90
22678;DHT22;26259;50.214;18.620;2022-12-16T07:46:19;-1.70;99.90
22678;DHT22;26259;50.214;18.620;2022-12-16T07:49:03;-1.80;99.90
22678;DHT22;26259;50.214;18.620;2022-12-16T07:51:47;-1.80;99.90
22678;DHT22;26259;50.214;18.620;2022-12-16T07:54:31;-1.80;99.90
22678;DHT22;26259;50.214;18.620;2022-12-16T07:57:15;-1.80;99.90
22678;DHT22;26259;50.214;18.620;2022-12-16T07:59:59;-1.70;99.90
22678;DHT22;26259;50.214;18.620;2022-12-16T08:02:43;-1.70;99.90
22678;DHT22;26259;50.214;18.620;2022-12-16T08:05:27;-1.60;99.90
22678;DHT22;26259;50.214;18.620;2022-12-16T08:08:11;-1.60;99.90
22678;DHT22;26259;50.214;18.620;2022-12-16T08:10:55;-1.50;99.90
22678;DHT22;26259;50.214;18.620;2022-12-16T08:13:39;-1.50;99.90
22678;DHT22;26259;50.214;18.620;2022-12-16T08:16:23;-1.40;99.90
22678;DHT22;26259;50.214;18.620;2022-12-16T08:19:07;-1.40;99.90
22678;DHT22;26259;50.214;18.620;2022-12-16T08:21:51;-1.30;99.90
22678;DHT22;26259;50.214;18.620;2022-12-16T08:24:35;-1.40;99.90
22678;DHT22;26259;50.214;18.620;2022-12-16T08:27:20;-1.30;99.90
22678;DHT22;26259;50.214;18.620;2022-12-16T08:30:04;-1.30;99.90
22678;DHT22;26259;50.214;18.620;2022-12-16T08:32:48;-1.30;99.90
22678;DHT22;26259;50.214;18.620;2022-12-16T08:35:32;-1.20;99.90
22678;DHT22;26259;50.214;18.620;2022-12-16T08:38:16;-1.20;99.90
22678;DHT22;26259;50.214;18.620;2022-12-16T08:41:00;-1.20;99.90
22678;DHT22;26259;50.214;18.620;2022-12-16T08:43:44;-1.30;99.90
22678;DHT22;26259;50.214;18.620;2022-12-16T08:46:28;-1.30;99.90
22678;DHT22;26259;50.214;18.620;2022-12-16T08:49:12;-1.30;99.90
22678;DHT22;26259;50.214;18.620;2022-12-16T08:51:58;-1.30;99.90
22678;DHT22;26259;50.214;18.620;2022-12-16T08:54:42;-1.30;99.90
22678;DHT22;26259;50.214;18.620;2022-12-16T08:57:26;-1.20;99.90
22678;DHT22;26259;50.214;18.620;2022-12-16T09:00:10;-1.20;99.90
22678;DHT22;26259;50.214;18.620;2022-12-16T09:02:58;-1.10;99.90
22678;DHT22;26259;50.214;18.620;2022-12-16T09:05:43;-1.10;99.90
22678;DHT22;26259;50.214;18.620;2022-12-16T09:08:27;-1.10;99.90
22678;DHT22;26259;50.214;18.620;2022-12-16T09:11:12;-1.10;99.90
22678;DHT22;26259;50.214;18.620;2022-12-16T09:13:56;-1.20;99.90
22678;DHT22;26259;50.214;18.620;2022-12-16T09:16:40;-1.30;99.90
22678;DHT22;26259;50.214;18.620;2022-12-16T09:19:24;-1.30;99.90
22678;DHT22;26259;50.214;18.620;2022-12-16T09:22:08;-1.30;99.90
22678;DHT22;26259;50.214;18.620;2022-12-16T09:24:52;-1.40;99.90
22678;DHT22;26259;50.214;18.620;2022-12-16T09:27:37;-1.40;99.90
22678;DHT22;26259;50.214;18.620;2022-12-16T09:30:21;-1.30;99.90
22678;DHT22;26259;50.214;18.620;2022-12-16T09:33:05;-1.30;99.90
22678;DHT22;26259;50.214;18.620;2022-12-16T09:35:50;-1.30;99.90
22678;DHT22;26259;50.214;18.620;2022-12-16T09:38:34;-1.20;99.90
22678;DHT22;26259;50.214;18.620;2022-12-16T09:41:29;-1.20;99.90
22678;DHT22;26259;50.214;18.620;2022-12-16T09:44:44;-1.10;99.90
22678;DHT22;26259;50.214;18.620;2022-12-16T09:50:33;-1.10;99.90
22678;DHT22;26259;50.214;18.620;2022-12-16T09:53:21;-1.10;99.90
22678;DHT22;26259;50.214;18.620;2022-12-16T09:56:14;-1.00;99.90
22678;DHT22;26259;50.214;18.620;2022-12-16T09:59:01;-1.00;99.90
22678;DHT22;26259;50.214;18.620;2022-12-16T10:01:49;-1.00;99.90
22678;DHT22;26259;50.214;18.620;2022-12-16T10:04:33;-0.90;99.90
22678;DHT22;26259;50.214;18.620;2022-12-16T10:07:21;-0.90;99.90
22678;DHT22;26259;50.214;18.620;2022-12-16T10:13:28;-0.90;99.90
22678;DHT22;26259;50.214;18.620;2022-12-16T10:25:31;-0.60;99.90
22678;DHT22;26259;50.214;18.620;2022-12-16T10:31:24;-0.40;99.90
22678;DHT22;26259;50.214;18.620;2022-12-16T10:34:18;-0.40;99.90
22678;DHT22;26259;50.214;18.620;2022-12-16T10:37:02;-0.30;99.90
22678;DHT22;26259;50.214;18.620;2022-12-16T10:39:54;-0.20;99.90
22678;DHT22;26259;50.214;18.620;2022-12-16T10:42:46;-0.20;99.90
22678;DHT22;26259;50.214;18.620;2022-12-16T10:45:36;-0.10;99.90
22678;DHT22;26259;50.214;18.620;2022-12-16T10:48:27;0.10;99.90
22678;DHT22;26259;50.214;18.620;2022-12-16T10:51:13;0.20;99.90
22678;DHT22;26259;50.214;18.620;2022-12-16T11:00:17;0.00;99.90
22678;DHT22;26259;50.214;18.620;2022-12-16T11:03:22;-0.10;99.90
22678;DHT22;26259;50.214;18.620;2022-12-16T11:06:08;-0.20;99.90
22678;DHT22;26259;50.214;18.620;2022-12-16T11:08:52;-0.20;99.90
22678;DHT22;26259;50.214;18.620;2022-12-16T11:11:36;-0.10;99.90
22678;DHT22;26259;50.214;18.620;2022-12-16T11:14:29;-0.20;99.90
22678;DHT22;26259;50.214;18.620;2022-12-16T11:17:22;-0.30;99.90
22678;DHT22;26259;50.214;18.620;2022-12-16T11:20:10;-0.40;99.90
22678;DHT22;26259;50.214;18.620;2022-12-16T11:23:17;-0.50;99.90
22678;DHT22;26259;50.214;18.620;2022-12-16T11:26:14;-0.40;99.90
22678;DHT22;26259;50.214;18.620;2022-12-16T11:29:11;-0.40;99.90
22678;DHT22;26259;50.214;18.620;2022-12-16T11:32:19;-0.40;99.90
22678;DHT22;26259;50.214;18.620;2022-12-16T11:35:05;-0.30;99.90
22678;DHT22;26259;50.214;18.620;2022-12-16T11:37:53;-0.20;99.90
22678;DHT22;26259;50.214;18.620;2022-12-16T11:40:38;-0.20;99.90
22678;DHT22;26259;50.214;18.620;2022-12-16T11:43:41;-0.10;99.90
22678;DHT22;26259;50.214;18.620;2022-12-16T11:46:28;-0.10;99.90
22678;DHT22;26259;50.214;18.620;2022-12-16T11:49:31;-0.20;99.90
22678;DHT22;26259;50.214;18.620;2022-12-16T11:52:17;-0.20;99.90
22678;DHT22;26259;50.214;18.620;2022-12-16T11:55:13;-0.30;99.90
22678;DHT22;26259;50.214;18.620;2022-12-16T11:58:27;-0.40;99.90
22678;DHT22;26259;50.214;18.620;2022-12-16T12:01:21;-0.50;99.90
22678;DHT22;26259;50.214;18.620;2022-12-16T12:04:06;-0.50;99.90
22678;DHT22;26259;50.214;18.620;2022-12-16T12:13:14;-0.50;99.90
22678;DHT22;26259;50.214;18.620;2022-12-16T12:16:11;-0.50;99.90
22678;DHT22;26259;50.214;18.620;2022-12-16T12:19:09;-0.60;99.90
22678;DHT22;26259;50.214;18.620;2022-12-16T12:22:09;-0.70;99.90
22678;DHT22;26259;50.214;18.620;2022-12-16T12:24:58;-0.60;99.90
22678;DHT22;26259;50.214;18.620;2022-12-16T12:28:31;-0.50;99.90
22678;DHT22;26259;50.214;18.620;2022-12-16T12:34:24;-0.40;99.90
22678;DHT22;26259;50.214;18.620;2022-12-16T12:37:35;-0.30;99.90
22678;DHT22;26259;50.214;18.620;2022-12-16T12:40:58;-0.30;99.90
22678;DHT22;26259;50.214;18.620;2022-12-16T12:46:59;-0.20;99.90
22678;DHT22;26259;50.214;18.620;2022-12-16T12:50:47;-0.20;99.90
22678;DHT22;26259;50.214;18.620;2022-12-16T12:53:47;-0.20;99.90
22678;DHT22;26259;50.214;18.620;2022-12-16T12:56:39;-0.30;99.90
22678;DHT22;26259;50.214;18.620;2022-12-16T13:02:24;-0.50;99.90
22678;DHT22;26259;50.214;18.620;2022-12-16T13:05:12;-0.60;99.90
22678;DHT22;26259;50.214;18.620;2022-12-16T13:11:19;-0.70;99.90
22678;DHT22;26259;50.214;18.620;2022-12-16T13:17:14;-0.70;99.90
22678;DHT22;26259;50.214;18.620;2022-12-16T13:19:58;-0.70;99.90
22678;DHT22;26259;50.214;18.620;2022-12-16T13:22:44;-0.60;99.90
22678;DHT22;26259;50.214;18.620;2022-12-16T13:28:30;-0.70;99.90
22678;DHT22;26259;50.214;18.620;2022-12-16T13:31:15;-0.70;99.90
22678;DHT22;26259;50.214;18.620;2022-12-16T13:37:01;-0.90;99.90
22678;DHT22;26259;50.214;18.620;2022-12-16T13:45:43;-1.00;99.90
22678;DHT22;26259;50.214;18.620;2022-12-16T13:48:46;-1.00;99.90
22678;DHT22;26259;50.214;18.620;2022-12-16T13:54:27;-1.10;99.90
22678;DHT22;26259;50.214;18.620;2022-12-16T13:57:14;-1.10;99.90
22678;DHT22;26259;50.214;18.620;2022-12-16T14:00:02;-1.10;99.90
22678;DHT22;26259;50.214;18.620;2022-12-16T14:03:14;-1.20;99.90
22678;DHT22;26259;50.214;18.620;2022-12-16T14:06:01;-1.30;99.90
22678;DHT22;26259;50.214;18.620;2022-12-16T14:08:48;-1.30;99.90
22678;DHT22;26259;50.214;18.620;2022-12-16T14:12:02;-1.30;99.90
22678;DHT22;26259;50.214;18.620;2022-12-16T14:14:55;-1.40;99.90
22678;DHT22;26259;50.214;18.620;2022-12-16T14:17:54;-1.40;99.90
22678;DHT22;26259;50.214;18.620;2022-12-16T14:20:54;-1.40;99.90
22678;DHT22;26259;50.214;18.620;2022-12-16T14:23:55;-1.40;99.90
22678;DHT22;26259;50.214;18.620;2022-12-16T14:26:42;-1.40;99.90
22678;DHT22;26259;50.214;18.620;2022-12-16T14:29:31;-1.40;99.90
22678;DHT22;26259;50.214;18.620;2022-12-16T14:32:26;-1.40;99.90
22678;DHT22;26259;50.214;18.620;2022-12-16T14:35:17;-1.50;99.90
22678;DHT22;26259;50.214;18.620;2022-12-16T14:38:29;-1.50;99.90
22678;DHT22;26259;50.214;18.620;2022-12-16T14:44:00;-1.40;99.90
22678;DHT22;26259;50.214;18.620;2022-12-16T14:46:52;-1.50;99.90
22678;DHT22;26259;50.214;18.620;2022-12-16T14:49:48;-1.50;99.90
22678;DHT22;26259;50.214;18.620;2022-12-16T14:52:35;-1.50;99.90
22678;DHT22;26259;50.214;18.620;2022-12-16T14:55:30;-1.50;99.90
22678;DHT22;26259;50.214;18.620;2022-12-16T14:58:19;-1.50;99.90
22678;DHT22;26259;50.214;18.620;2022-12-16T15:01:13;-1.50;99.90
22678;DHT22;26259;50.214;18.620;2022-12-16T15:03:59;-1.50;99.90
22678;DHT22;26259;50.214;18.620;2022-12-16T15:06:47;-1.50;99.90
22678;DHT22;26259;50.214;18.620;2022-12-16T15:09:39;-1.50;99.90
22678;DHT22;26259;50.214;18.620;2022-12-16T15:12:28;-1.40;99.90
22678;DHT22;26259;50.214;18.620;2022-12-16T15:18:27;-1.50;99.90
22678;DHT22;26259;50.214;18.620;2022-12-16T15:21:13;-1.50;99.90
22678;DHT22;26259;50.214;18.620;2022-12-16T15:23:57;-1.50;99.90
22678;DHT22;26259;50.214;18.620;2022-12-16T15:26:44;-1.50;99.90
22678;DHT22;26259;50.214;18.620;2022-12-16T15:29:40;-1.50;99.90
22678;DHT22;26259;50.214;18.620;2022-12-16T15:35:29;-1.60;99.90
22678;DHT22;26259;50.214;18.620;2022-12-16T15:40:59;-1.60;99.90
22678;DHT22;26259;50.214;18.620;2022-12-16T15:43:45;-1.60;99.90
22678;DHT22;26259;50.214;18.620;2022-12-16T15:46:46;-1.60;99.90
22678;DHT22;26259;50.214;18.620;2022-12-16T15:49:33;-1.60;99.90
22678;DHT22;26259;50.214;18.620;2022-12-16T15:58:28;-1.60;99.90
22678;DHT22;26259;50.214;18.620;2022-12-16T16:01:15;-1.60;99.90
22678;DHT22;26259;50.214;18.620;2022-12-16T16:04:00;-1.70;99.90
22678;DHT22;26259;50.214;18.620;2022-12-16T16:06:52;-1.70;99.90
22678;DHT22;26259;50.214;18.620;2022-12-16T16:09:37;-1.80;99.90
22678;DHT22;26259;50.214;18.620;2022-12-16T16:12:23;-1.70;99.90
22678;DHT22;26259;50.214;18.620;2022-12-16T16:15:09;-1.80;99.90
22678;DHT22;26259;50.214;18.620;2022-12-16T16:18:04;-1.80;99.90
22678;DHT22;26259;50.214;18.620;2022-12-16T16:20:50;-1.80;99.90
22678;DHT22;26259;50.214;18.620;2022-12-16T16:23:34;-1.80;99.90
22678;DHT22;26259;50.214;18.620;2022-12-16T16:26:21;-1.80;99.90
22678;DHT22;26259;50.214;18.620;2022-12-16T16:29:08;-1.90;99.90
22678;DHT22;26259;50.214;18.620;2022-12-16T16:31:52;-1.90;99.90
22678;DHT22;26259;50.214;18.620;2022-12-16T16:34:36;-1.90;99.90
22678;DHT22;26259;50.214;18.620;2022-12-16T16:37:20;-1.90;99.90
22678;DHT22;26259;50.214;18.620;2022-12-16T16:40:16;-1.90;99.90
22678;DHT22;26259;50.214;18.620;2022-12-16T16:43:01;-1.90;99.90
22678;DHT22;26259;50.214;18.620;2022-12-16T16:45:52;-1.90;99.90
22678;DHT22;26259;50.214;18.620;2022-12-16T16:48:37;-1.90;99.90
22678;DHT22;26259;50.214;18.620;2022-12-16T16:51:41;-1.90;99.90
22678;DHT22;26259;50.214;18.620;2022-12-16T16:54:25;-1.80;99.90
22678;DHT22;26259;50.214;18.620;2022-12-16T16:57:09;-1.80;99.90
22678;DHT22;26259;50.214;18.620;2022-12-16T16:59:53;-1.80;99.90
22678;DHT22;26259;50.214;18.620;2022-12-16T17:02:37;-1.80;99.90
22678;DHT22;26259;50.214;18.620;2022-12-16T17:05:21;-1.80;99.90
22678;DHT22;26259;50.214;18.620;2022-12-16T17:08:05;-1.70;99.90
22678;DHT22;26259;50.214;18.620;2022-12-16T17:10:49;-1.70;99.90
22678;DHT22;26259;50.214;18.620;2022-12-16T17:13:33;-1.70;99.90
22678;DHT22;26259;50.214;18.620;2022-12-16T17:16:17;-1.70;99.90
22678;DHT22;26259;50.214;18.620;2022-12-16T17:19:01;-1.70;99.90
22678;DHT22;26259;50.214;18.620;2022-12-16T17:21:45;-1.70;99.90
22678;DHT22;26259;50.214;18.620;2022-12-16T17:24:29;-1.70;99.90
22678;DHT22;26259;50.214;18.620;2022-12-16T17:27:19;-1.70;99.90
22678;DHT22;26259;50.214;18.620;2022-12-16T17:30:10;-1.70;99.90
22678;DHT22;26259;50.214;18.620;2022-12-16T17:32:55;-1.70;99.90
22678;DHT22;26259;50.214;18.620;2022-12-16T17:35:39;-1.70;99.90
22678;DHT22;26259;50.214;18.620;2022-12-16T17:38:23;-1.70;99.90
22678;DHT22;26259;50.214;18.620;2022-12-16T17:41:07;-1.70;99.90
22678;DHT22;26259;50.214;18.620;2022-12-16T17:43:52;-1.70;99.90
22678;DHT22;26259;50.214;18.620;2022-12-16T17:46:36;-1.70;99.90
22678;DHT22;26259;50.214;18.620;2022-12-16T17:49:20;-1.60;99.90
22678;DHT22;26259;50.214;18.620;2022-12-16T17:52:04;-1.70;99.90
22678;DHT22;26259;50.214;18.620;2022-12-16T17:54:48;-1.70;99.90
22678;DHT22;26259;50.214;18.620;2022-12-16T17:57:32;-1.70;99.90
22678;DHT22;26259;50.214;18.620;2022-12-16T18:00:16;-1.60;99.90
22678;DHT22;26259;50.214;18.620;2022-12-16T18:03:00;-1.70;99.90
22678;DHT22;26259;50.214;18.620;2022-12-16T18:05:44;-1.70;99.90
22678;DHT22;26259;50.214;18.620;2022-12-16T18:08:30;-1.70;99.90
22678;DHT22;26259;50.214;18.620;2022-12-16T18:11:15;-1.70;99.90
22678;DHT22;26259;50.214;18.620;2022-12-16T18:13:59;-1.70;99.90
22678;DHT22;26259;50.214;18.620;2022-12-16T18:16:43;-1.70;99.90
22678;DHT22;26259;50.214;18.620;2022-12-16T18:19:27;-1.70;99.90
22678;DHT22;26259;50.214;18.620;2022-12-16T18:22:11;-1.70;99.90
22678;DHT22;26259;50.214;18.620;2022-12-16T18:24:55;-1.80;99.90
22678;DHT22;26259;50.214;18.620;2022-12-16T18:27:39;-1.70;99.90
22678;DHT22;26259;50.214;18.620;2022-12-16T18:30:23;-1.70;99.90
22678;DHT22;26259;50.214;18.620;2022-12-16T18:33:07;-1.80;99.90
22678;DHT22;26259;50.214;18.620;2022-12-16T18:35:52;-1.80;99.90
22678;DHT22;26259;50.214;18.620;2022-12-16T18:38:36;-1.80;99.90
22678;DHT22;26259;50.214;18.620;2022-12-16T18:41:21;-1.80;99.90
22678;DHT22;26259;50.214;18.620;2022-12-16T18:44:06;-1.80;99.90